createdAt,value
2023-04-23T00:00:58.665Z,6.75
2023-04-23T00:03:10.709Z,7.03
2023-04-23T00:05:16.630Z,8.07
2023-04-23T00:07:22.133Z,7.03
2023-04-23T00:09:27.157Z,7.72
2023-04-23T00:11:31.067Z,8.20
2023-04-23T00:13:34.612Z,8.35
2023-04-23T00:15:38.922Z,8.38
2023-04-23T00:17:42.281Z,8.80
2023-04-23T00:19:46.164Z,8.55
2023-04-23T00:21:51.504Z,8.85
2023-04-23T00:23:58.142Z,9.40
2023-04-23T00:26:01.621Z,9.80
2023-04-23T00:28:05.547Z,9.73
2023-04-23T00:30:10.051Z,10.05
2023-04-23T00:32:14.675Z,10.38
2023-04-23T00:34:18.085Z,10.40
2023-04-23T00:36:21.522Z,10.85
2023-04-23T00:38:27.517Z,11.15
2023-04-23T00:40:31.039Z,10.95
2023-04-23T00:42:34.681Z,11.55
2023-04-23T00:44:38.607Z,11.18
2023-04-23T00:46:43.816Z,11.60
2023-04-23T00:48:47.487Z,11.43
2023-04-23T00:50:51.255Z,11.35
2023-04-23T00:52:54.745Z,11.73
2023-04-23T00:54:59.606Z,12.02
2023-04-23T00:57:03.830Z,13.23
2023-04-23T00:59:07.291Z,12.25
2023-04-23T01:01:12.514Z,13.40
2023-04-23T01:03:16.749Z,12.63
2023-04-23T01:05:23.320Z,13.73
2023-04-23T01:07:27.752Z,12.32
2023-04-23T01:09:32.590Z,13.13
2023-04-23T01:11:39.157Z,13.55
2023-04-23T01:13:43.272Z,13.52
2023-04-23T01:15:46.822Z,13.35
2023-04-23T01:17:50.403Z,13.00
2023-04-23T01:19:54.039Z,13.95
2023-04-23T01:22:01.197Z,13.57
2023-04-23T01:24:07.091Z,13.93
2023-04-23T01:26:11.003Z,15.27
2023-04-23T01:28:14.808Z,14.40
2023-04-23T01:30:18.468Z,14.23
2023-04-23T01:32:22.923Z,14.15
2023-04-23T01:34:26.327Z,14.75
2023-04-23T01:36:29.890Z,14.57
2023-04-23T01:38:35.426Z,14.93
2023-04-23T01:40:40.257Z,14.82
2023-04-23T01:42:43.778Z,14.95
2023-04-23T01:44:47.448Z,14.07
2023-04-23T01:46:50.865Z,15.63
2023-04-23T01:48:54.488Z,19.05
2023-04-23T01:50:58.301Z,21.63
2023-04-23T01:53:01.822Z,26.33
2023-04-23T01:55:05.850Z,28.27
2023-04-23T01:57:11.085Z,29.83
2023-04-23T01:59:14.635Z,30.90
2023-04-23T02:01:18.173Z,31.88
2023-04-23T02:03:21.908Z,31.73
2023-04-23T02:05:29.830Z,33.60
2023-04-23T02:07:33.625Z,32.80
2023-04-23T02:09:37.061Z,35.20
2023-04-23T02:11:41.917Z,35.75
2023-04-23T02:13:46.655Z,34.08
2023-04-23T02:15:50.261Z,33.83
2023-04-23T02:17:54.154Z,34.08
2023-04-23T02:19:57.625Z,34.97
2023-04-23T02:22:01.833Z,35.22
2023-04-23T02:24:06.232Z,35.38
2023-04-23T02:26:09.666Z,33.65
2023-04-23T02:28:13.595Z,33.13
2023-04-23T02:30:19.247Z,32.05
2023-04-23T02:32:22.816Z,31.65
2023-04-23T02:34:26.222Z,31.55
2023-04-23T02:36:31.196Z,32.25
2023-04-23T02:38:34.625Z,32.30
2023-04-23T02:40:38.131Z,30.45
2023-04-23T02:42:43.838Z,31.27
2023-04-23T02:44:47.444Z,31.15
2023-04-23T02:46:52.478Z,31.02
2023-04-23T02:48:56.045Z,31.67
2023-04-23T02:50:59.485Z,32.35
2023-04-23T02:53:02.995Z,31.20
2023-04-23T02:55:07.373Z,32.45
2023-04-23T02:57:12.858Z,33.70
2023-04-23T02:59:16.376Z,32.55
2023-04-23T03:01:20.320Z,31.30
2023-04-23T03:03:26.847Z,25.63
2023-04-23T03:05:30.532Z,22.92
2023-04-23T03:07:34.128Z,22.20
2023-04-23T03:09:37.829Z,21.80
2023-04-23T03:11:41.200Z,20.83
2023-04-23T03:13:45.781Z,20.00
2023-04-23T03:15:50.360Z,20.38
2023-04-23T03:17:54.575Z,20.00
2023-04-23T03:19:59.465Z,20.15
2023-04-23T03:22:05.765Z,19.17
2023-04-23T03:24:09.431Z,18.83
2023-04-23T03:26:12.835Z,18.80
2023-04-23T03:28:16.390Z,18.63
2023-04-23T03:30:21.672Z,19.65
2023-04-23T03:32:25.814Z,17.48
2023-04-23T03:34:29.303Z,16.58
2023-04-23T03:36:34.118Z,16.63
2023-04-23T03:38:38.093Z,17.08
2023-04-23T03:40:41.704Z,15.55
2023-04-23T03:42:46.482Z,15.18
2023-04-23T03:44:51.475Z,14.73
2023-04-23T03:46:54.918Z,14.50
2023-04-23T03:48:58.318Z,15.60
2023-04-23T03:51:03.797Z,15.82
2023-04-23T03:53:28.444Z,14.80
2023-04-23T03:56:10.183Z,15.48
2023-04-23T03:58:23.730Z,16.08
2023-04-23T04:00:28.797Z,15.70
2023-04-23T04:02:32.428Z,16.25
2023-04-23T04:04:36.839Z,15.90
2023-04-23T04:06:40.666Z,15.80
2023-04-23T04:08:45.511Z,16.38
2023-04-23T04:10:48.939Z,15.55
2023-04-23T04:12:52.497Z,14.80
2023-04-23T04:14:56.419Z,13.95
2023-04-23T04:17:00.218Z,13.30
2023-04-23T04:19:04.012Z,12.68
2023-04-23T04:21:07.585Z,13.27
2023-04-23T04:23:11.100Z,13.07
2023-04-23T04:25:16.009Z,12.90
2023-04-23T04:27:19.716Z,12.55
2023-04-23T04:29:24.047Z,12.10
2023-04-23T04:31:28.394Z,12.43
2023-04-23T04:33:33.046Z,12.77
2023-04-23T04:35:37.054Z,13.02
2023-04-23T04:37:40.802Z,13.50
2023-04-23T04:39:44.214Z,13.05
2023-04-23T04:41:49.343Z,13.20
2023-04-23T04:43:53.022Z,13.05
2023-04-23T04:45:59.148Z,13.30
2023-04-23T04:48:02.629Z,12.23
2023-04-23T04:50:06.969Z,13.00
2023-04-23T04:52:10.414Z,12.40
2023-04-23T04:54:13.885Z,13.25
2023-04-23T04:56:17.348Z,13.43
2023-04-23T04:58:22.298Z,12.35
2023-04-23T05:00:29.534Z,12.23
2023-04-23T05:02:33.192Z,12.27
2023-04-23T05:04:36.715Z,11.48
2023-04-23T05:06:40.289Z,10.70
2023-04-23T05:08:48.165Z,10.88
2023-04-23T05:10:51.968Z,10.75
2023-04-23T05:12:55.451Z,11.02
2023-04-23T05:15:00.305Z,9.82
2023-04-23T05:17:03.870Z,10.05
2023-04-23T05:19:08.348Z,10.57
2023-04-23T05:21:11.798Z,10.65
2023-04-23T05:23:15.231Z,11.15
2023-04-23T05:25:18.668Z,10.45
2023-04-23T05:27:22.123Z,10.98
2023-04-23T05:29:25.761Z,10.43
2023-04-23T05:31:30.664Z,10.73
2023-04-23T05:33:42.889Z,11.32
2023-04-23T05:35:53.249Z,11.25
2023-04-23T05:37:56.905Z,11.20
2023-04-23T05:40:00.468Z,11.85
2023-04-23T05:42:04.481Z,11.85
2023-04-23T05:44:07.988Z,12.45
2023-04-23T05:46:11.426Z,11.88
2023-04-23T05:48:16.250Z,12.07
2023-04-23T05:50:19.961Z,11.93
2023-04-23T05:52:23.313Z,11.57
2023-04-23T05:54:26.799Z,11.57
2023-04-23T05:56:30.276Z,11.20
2023-04-23T05:58:33.689Z,10.30
2023-04-23T06:00:37.635Z,10.30
2023-04-23T06:02:41.882Z,10.70
2023-04-23T06:04:47.104Z,10.73
2023-04-23T06:06:51.346Z,11.02
2023-04-23T06:08:54.819Z,10.32
2023-04-23T06:10:58.275Z,10.80
2023-04-23T06:13:01.687Z,10.48
2023-04-23T06:15:06.162Z,9.90
2023-04-23T06:17:09.575Z,8.82
2023-04-23T06:19:13.020Z,9.05
2023-04-23T06:21:18.686Z,8.65
2023-04-23T06:23:23.140Z,8.50
2023-04-23T06:25:26.553Z,7.95
2023-04-23T06:27:30.031Z,7.65
2023-04-23T06:29:38.532Z,7.72
2023-04-23T06:31:43.103Z,7.13
2023-04-23T06:33:47.241Z,6.72
2023-04-23T06:35:50.950Z,7.05
2023-04-23T06:37:56.355Z,6.93
2023-04-23T06:40:00.888Z,6.35
2023-04-23T06:42:04.341Z,7.00
2023-04-23T06:44:20.331Z,6.40
2023-04-23T06:46:30.052Z,6.28
2023-04-23T06:48:33.760Z,6.53
2023-04-23T06:50:37.402Z,6.53
2023-04-23T06:52:40.787Z,6.65
2023-04-23T06:54:45.568Z,7.43
2023-04-23T06:56:48.948Z,6.40
2023-04-23T06:58:52.451Z,6.10
2023-04-23T07:01:00.111Z,6.35
2023-04-23T07:03:05.720Z,6.20
2023-04-23T07:05:10.470Z,6.22
2023-04-23T07:07:13.906Z,6.60
2023-04-23T07:09:17.477Z,6.47
2023-04-23T07:11:23.547Z,6.70
2023-04-23T07:13:27.388Z,6.70
2023-04-23T07:15:31.850Z,6.50
2023-04-23T07:17:36.101Z,7.32
2023-04-23T07:19:39.712Z,7.32
2023-04-23T07:21:43.153Z,13.00
2023-04-23T07:23:46.688Z,7.68
2023-04-23T07:25:50.363Z,7.57
2023-04-23T07:27:55.359Z,7.60
2023-04-23T07:29:59.343Z,7.65
2023-04-23T07:32:02.962Z,7.88
2023-04-23T07:34:07.505Z,7.97
2023-04-23T07:36:10.905Z,7.82
2023-04-23T07:38:14.276Z,7.97
2023-04-23T07:40:17.721Z,7.45
2023-04-23T07:42:21.199Z,7.95
2023-04-23T07:44:26.214Z,7.05
2023-04-23T07:46:30.102Z,7.57
2023-04-23T07:48:34.637Z,7.30
2023-04-23T07:50:38.066Z,6.57
2023-04-23T07:52:41.566Z,6.60
2023-04-23T07:54:45.006Z,6.80
2023-04-23T07:56:48.457Z,6.65
2023-04-23T07:58:58.281Z,6.45
2023-04-23T08:01:03.401Z,6.63
2023-04-23T08:03:06.923Z,6.60
2023-04-23T08:05:11.149Z,6.80
2023-04-23T08:07:14.739Z,6.30
2023-04-23T08:09:18.200Z,5.50
2023-04-23T08:11:21.737Z,6.63
2023-04-23T08:13:25.313Z,6.35
2023-04-23T08:15:28.785Z,5.85
2023-04-23T08:17:33.665Z,6.00
2023-04-23T08:19:37.111Z,5.70
2023-04-23T08:21:40.688Z,6.55
2023-04-23T08:23:44.060Z,6.22
2023-04-23T08:25:47.430Z,6.50
2023-04-23T08:27:51.153Z,6.78
2023-04-23T08:29:54.553Z,7.15
2023-04-23T08:31:58.036Z,5.72
2023-04-23T08:34:02.963Z,6.13
2023-04-23T08:36:06.745Z,6.53
2023-04-23T08:38:10.230Z,6.30
2023-04-23T08:40:14.272Z,6.25
2023-04-23T08:42:28.268Z,7.05
2023-04-23T08:44:33.618Z,6.13
2023-04-23T08:46:38.578Z,6.35
2023-04-23T08:48:42.722Z,6.63
2023-04-23T08:50:47.971Z,6.72
2023-04-23T08:52:55.015Z,6.85
2023-04-23T08:55:02.138Z,6.38
2023-04-23T08:57:07.335Z,6.30
2023-04-23T08:59:11.406Z,6.40
2023-04-23T09:01:15.671Z,6.03
2023-04-23T09:03:19.607Z,6.90
2023-04-23T09:05:23.046Z,6.43
2023-04-23T09:07:27.939Z,6.38
2023-04-23T09:09:31.720Z,5.75
2023-04-23T09:11:38.041Z,6.13
2023-04-23T09:13:42.228Z,6.63
2023-04-23T09:15:45.697Z,5.95
2023-04-23T09:17:49.996Z,6.88
2023-04-23T09:19:55.284Z,6.50
2023-04-23T09:22:01.144Z,6.40
2023-04-23T09:24:07.982Z,6.40
2023-04-23T09:26:11.454Z,6.53
2023-04-23T09:28:15.587Z,6.88
2023-04-23T09:30:20.310Z,6.20
2023-04-23T09:32:33.081Z,6.32
2023-04-23T09:34:37.678Z,6.50
2023-04-23T09:36:41.083Z,6.90
2023-04-23T09:38:44.542Z,7.25
2023-04-23T09:40:51.662Z,7.45
2023-04-23T09:42:55.164Z,7.22
2023-04-23T09:44:59.758Z,8.05
2023-04-23T09:47:12.076Z,8.00
2023-04-23T09:49:16.351Z,7.68
2023-04-23T09:51:19.804Z,8.05
2023-04-23T09:53:23.222Z,9.18
2023-04-23T09:55:35.404Z,8.88
2023-04-23T09:57:42.576Z,10.07
2023-04-23T09:59:50.020Z,11.30
2023-04-23T10:01:55.083Z,9.27
2023-04-23T10:03:59.252Z,10.32
2023-04-23T10:06:03.458Z,10.90
2023-04-23T10:08:09.050Z,8.73
2023-04-23T10:10:13.649Z,9.40
2023-04-23T10:12:36.669Z,10.35
2023-04-23T10:14:45.180Z,10.15
2023-04-23T10:16:49.403Z,9.57
2023-04-23T10:18:55.472Z,10.10
2023-04-23T10:20:59.337Z,9.38
2023-04-23T10:23:03.487Z,8.98
2023-04-23T10:25:12.192Z,9.55
2023-04-23T10:27:28.854Z,9.68
2023-04-23T10:29:43.573Z,10.07
2023-04-23T10:31:47.555Z,10.45
2023-04-23T10:33:58.318Z,10.82
2023-04-23T10:36:03.078Z,10.30
2023-04-23T10:38:06.863Z,9.70
2023-04-23T10:40:14.280Z,10.48
2023-04-23T10:42:19.240Z,11.38
2023-04-23T10:44:44.975Z,11.23
2023-04-23T10:46:56.496Z,11.35
2023-04-23T10:49:14.389Z,10.85
2023-04-23T10:52:02.584Z,9.88
2023-04-23T10:53:43.682Z,11.68
2023-04-23T10:55:48.505Z,11.63
2023-04-23T10:58:03.079Z,12.90
2023-04-23T11:00:09.745Z,13.40
2023-04-23T11:02:15.066Z,12.60
2023-04-23T11:04:23.716Z,12.40
2023-04-23T11:06:52.756Z,12.98
2023-04-23T11:08:57.666Z,13.60
2023-04-23T11:11:02.022Z,12.73
2023-04-23T11:13:25.184Z,12.60
2023-04-23T11:15:28.616Z,12.13
2023-04-23T11:18:06.987Z,11.93
2023-04-23T11:20:14.140Z,11.35
2023-04-23T11:22:20.104Z,11.35
2023-04-23T11:24:24.252Z,10.88
2023-04-23T11:26:31.970Z,10.88
2023-04-23T11:28:38.930Z,10.77
2023-04-23T11:30:42.389Z,10.07
2023-04-23T11:32:49.109Z,9.10
2023-04-23T11:34:54.603Z,8.85
2023-04-23T11:37:00.685Z,7.97
2023-04-23T11:39:04.252Z,8.88
2023-04-23T11:41:07.870Z,8.32
2023-04-23T11:43:11.289Z,8.13
2023-04-23T11:45:20.461Z,8.43
2023-04-23T11:47:28.278Z,7.90
2023-04-23T11:49:32.208Z,7.75
2023-04-23T11:51:42.084Z,7.22
2023-04-23T11:53:47.793Z,7.80
2023-04-23T11:55:51.160Z,7.30
2023-04-23T11:57:54.619Z,6.68
2023-04-23T11:59:57.960Z,7.60
2023-04-23T12:02:01.875Z,6.93
2023-04-23T12:04:11.560Z,6.38
2023-04-23T12:06:17.093Z,6.65
2023-04-23T12:08:22.862Z,6.32
2023-04-23T12:10:26.255Z,5.60
2023-04-23T12:12:35.324Z,5.88
2023-04-23T12:14:38.933Z,6.00
2023-04-23T12:16:44.049Z,5.93
2023-04-23T12:18:47.398Z,5.82
2023-04-23T12:20:51.298Z,5.10
2023-04-23T12:22:54.755Z,5.65
2023-04-23T12:25:01.507Z,5.47
2023-04-23T12:27:05.371Z,4.90
2023-04-23T12:29:09.297Z,4.78
2023-04-23T12:31:12.798Z,5.43
2023-04-23T12:33:16.324Z,6.15
2023-04-23T12:35:19.720Z,6.57
2023-04-23T12:37:26.100Z,5.32
2023-04-23T12:39:31.993Z,5.38
2023-04-23T12:41:36.829Z,5.32
2023-04-23T12:43:40.245Z,4.80
2023-04-23T12:45:45.314Z,4.72
2023-04-23T12:47:48.725Z,5.15
2023-04-23T12:49:53.729Z,4.63
2023-04-23T12:52:01.197Z,4.60
2023-04-23T12:54:04.908Z,4.30
2023-04-23T12:56:08.327Z,4.93
2023-04-23T12:58:13.300Z,4.45
2023-04-23T13:00:17.550Z,4.55
2023-04-23T13:02:21.161Z,4.40
2023-04-23T13:04:24.709Z,4.00
2023-04-23T13:06:29.355Z,3.53
2023-04-23T13:08:32.837Z,3.97
2023-04-23T13:10:40.981Z,4.10
2023-04-23T13:12:44.975Z,3.60
2023-04-23T13:14:49.928Z,3.60
2023-04-23T13:16:53.886Z,3.03
2023-04-23T13:18:57.439Z,3.60
2023-04-23T13:21:00.830Z,3.40
2023-04-23T13:23:04.242Z,4.25
2023-04-23T13:25:08.887Z,3.88
2023-04-23T13:27:12.282Z,3.83
2023-04-23T13:29:16.240Z,3.15
2023-04-23T13:31:21.292Z,4.13
2023-04-23T13:33:24.745Z,3.67
2023-04-23T13:35:28.386Z,3.50
2023-04-23T13:37:32.566Z,3.58
2023-04-23T13:39:36.427Z,3.38
2023-04-23T13:41:39.872Z,3.38
2023-04-23T13:43:43.412Z,3.50
2023-04-23T13:45:47.579Z,3.50
2023-04-23T13:47:52.484Z,3.40
2023-04-23T13:49:56.502Z,3.45
2023-04-23T13:52:04.415Z,3.13
2023-04-23T13:54:08.178Z,3.00
2023-04-23T13:56:11.927Z,2.92
2023-04-23T13:58:15.461Z,3.30
2023-04-23T14:00:19.389Z,3.10
2023-04-23T14:02:24.110Z,2.80
2023-04-23T14:04:29.047Z,2.58
2023-04-23T14:06:32.568Z,3.13
2023-04-23T14:08:36.860Z,3.03
2023-04-23T14:10:43.543Z,3.15
2023-04-23T14:12:47.427Z,3.33
2023-04-23T14:14:52.532Z,2.83
2023-04-23T14:16:55.958Z,2.95
2023-04-23T14:18:59.518Z,3.58
2023-04-23T14:21:04.358Z,3.08
2023-04-23T14:23:50.285Z,3.08
2023-04-23T14:26:00.789Z,2.95
2023-04-23T14:28:25.102Z,3.07
2023-04-23T14:30:29.800Z,3.00
2023-04-23T14:32:33.336Z,4.88
2023-04-23T14:34:36.941Z,15.13
2023-04-23T14:36:41.836Z,5.03
2023-04-23T14:38:45.278Z,4.50
2023-04-23T14:40:48.793Z,4.20
2023-04-23T14:42:53.652Z,4.00
2023-04-23T14:45:00.042Z,4.30
2023-04-23T14:47:03.836Z,4.20
2023-04-23T14:49:07.582Z,5.05
2023-04-23T14:51:10.995Z,5.05
2023-04-23T14:53:16.191Z,5.15
2023-04-23T14:55:19.721Z,4.85
2023-04-23T14:57:23.169Z,5.20
2023-04-23T14:59:26.592Z,4.93
2023-04-23T15:01:31.195Z,5.05
2023-04-23T15:03:35.058Z,4.70
2023-04-23T15:05:40.048Z,4.53
2023-04-23T15:07:43.794Z,5.20
2023-04-23T15:09:48.692Z,4.47
2023-04-23T15:11:52.820Z,4.20
2023-04-23T15:14:04.565Z,3.55
2023-04-23T15:16:29.052Z,3.65
2023-04-23T15:18:45.719Z,4.28
2023-04-23T15:20:49.104Z,4.13
2023-04-23T15:22:52.502Z,3.60
2023-04-23T15:24:57.322Z,4.28
2023-04-23T15:27:01.291Z,3.90
2023-04-23T15:29:06.146Z,4.00
2023-04-23T15:31:09.776Z,3.33
2023-04-23T15:33:13.180Z,2.40
2023-04-23T15:35:16.710Z,2.10
2023-04-23T15:37:21.190Z,1.70
2023-04-23T15:39:24.948Z,1.70
2023-04-23T15:41:30.080Z,1.50
2023-04-23T15:43:33.588Z,1.52
2023-04-23T15:45:36.953Z,1.65
2023-04-23T15:47:42.210Z,1.75
2023-04-23T15:49:46.173Z,1.75
2023-04-23T15:51:49.686Z,1.77
2023-04-23T15:53:53.369Z,1.50
2023-04-23T15:55:57.539Z,1.80
2023-04-23T15:58:03.742Z,1.70
2023-04-23T16:00:09.343Z,1.83
2023-04-23T16:02:15.766Z,1.90
2023-04-23T16:04:19.417Z,1.92
2023-04-23T16:06:23.178Z,2.00
2023-04-23T16:08:26.587Z,1.95
2023-04-23T16:10:31.542Z,2.17
2023-04-23T16:12:35.275Z,1.90
2023-04-23T16:14:40.473Z,1.83
2023-04-23T16:16:44.078Z,1.70
2023-04-23T16:18:47.511Z,1.60
2023-04-23T16:20:50.952Z,1.60
2023-04-23T16:22:54.315Z,1.40
2023-04-23T16:24:57.753Z,1.50
2023-04-23T16:27:02.429Z,1.55
2023-04-23T16:31:16.572Z,1.48
2023-04-23T16:33:20.120Z,1.60
2023-04-23T16:35:23.672Z,1.80
2023-04-23T16:37:27.168Z,1.98
2023-04-23T16:39:30.573Z,1.88
2023-04-23T16:41:34.008Z,2.00
2023-04-23T16:43:37.439Z,1.80
2023-04-23T16:45:41.355Z,2.10
2023-04-23T16:47:46.234Z,2.17
2023-04-23T16:49:49.714Z,2.28
2023-04-23T16:51:54.523Z,1.92
2023-04-23T16:53:59.516Z,1.70
2023-04-23T16:56:03.104Z,1.77
2023-04-23T16:58:07.068Z,2.03
2023-04-23T17:00:12.534Z,2.38
2023-04-23T17:02:16.140Z,2.40
2023-04-23T17:04:21.137Z,2.17
2023-04-23T17:06:29.434Z,2.20
2023-04-23T17:08:32.899Z,2.42
2023-04-23T17:10:36.318Z,2.40
2023-04-23T17:12:39.742Z,2.28
2023-04-23T17:14:43.449Z,2.28
2023-04-23T17:16:47.254Z,2.60
2023-04-23T17:18:50.621Z,3.80
2023-04-23T17:20:55.723Z,3.90
2023-04-23T17:22:59.181Z,2.85
2023-04-23T17:25:02.696Z,3.30
2023-04-23T17:27:06.116Z,3.78
2023-04-23T17:29:09.554Z,4.03
2023-04-23T17:31:13.083Z,5.35
2023-04-23T17:33:16.896Z,3.90
2023-04-23T17:35:20.292Z,6.13
2023-04-23T17:37:25.044Z,3.63
2023-04-23T17:39:28.461Z,4.38
2023-04-23T17:41:31.921Z,4.65
2023-04-23T17:43:35.971Z,4.10
2023-04-23T17:45:39.422Z,4.53
2023-04-23T17:47:42.852Z,6.85
2023-04-23T17:49:46.295Z,4.38
2023-04-23T17:51:49.831Z,5.10
2023-04-23T17:53:54.644Z,4.55
2023-04-23T17:56:02.623Z,4.60
2023-04-23T17:58:06.644Z,4.97
2023-04-23T18:00:12.360Z,4.65
2023-04-23T18:02:16.434Z,4.43
2023-04-23T18:04:20.294Z,4.55
2023-04-23T18:06:23.928Z,5.95
2023-04-23T18:08:27.829Z,5.50
2023-04-23T18:10:32.690Z,5.63
2023-04-23T18:12:36.259Z,5.65
2023-04-23T18:14:39.746Z,5.93
2023-04-23T18:16:43.203Z,6.00
2023-04-23T18:18:46.807Z,5.45
2023-04-23T18:20:52.190Z,5.80
2023-04-23T18:22:55.765Z,5.80
2023-04-23T18:24:59.189Z,5.68
2023-04-23T18:27:04.284Z,5.47
2023-04-23T18:29:07.694Z,5.45
2023-04-23T18:31:11.216Z,5.85
2023-04-23T18:33:26.581Z,6.00
2023-04-23T18:35:30.096Z,6.05
2023-04-23T18:37:37.510Z,6.15
2023-04-23T18:39:41.705Z,6.55
2023-04-23T18:41:45.367Z,6.03
2023-04-23T18:43:50.744Z,6.78
2023-04-23T18:45:54.278Z,5.93
2023-04-23T18:48:00.407Z,6.00
2023-04-23T18:50:09.447Z,6.55
2023-04-23T18:52:12.906Z,6.15
2023-04-23T18:54:17.777Z,6.00
2023-04-23T18:56:21.262Z,6.60
2023-04-23T18:58:25.628Z,6.90
2023-04-23T19:00:30.751Z,6.82
2023-04-23T19:02:35.998Z,6.70
2023-04-23T19:04:39.807Z,6.68
2023-04-23T19:06:43.450Z,7.03
2023-04-23T19:08:46.968Z,7.50
2023-04-23T19:10:50.417Z,7.82
2023-04-23T19:12:54.616Z,7.20
2023-04-23T19:14:58.014Z,7.80
2023-04-23T19:17:02.895Z,7.53
2023-04-23T19:19:06.366Z,7.68
2023-04-23T19:21:09.820Z,8.35
2023-04-23T19:23:13.310Z,8.43
2023-04-23T19:25:16.859Z,8.48
2023-04-23T19:27:22.493Z,9.20
2023-04-23T19:29:25.956Z,8.07
2023-04-23T19:31:30.322Z,8.55
2023-04-23T19:33:36.011Z,8.77
2023-04-23T19:35:40.427Z,8.45
2023-04-23T19:37:44.011Z,8.85
2023-04-23T19:39:47.410Z,9.00
2023-04-23T19:41:51.063Z,9.20
2023-04-23T19:43:54.513Z,9.23
2023-04-23T19:45:57.885Z,9.05
2023-04-23T19:48:04.536Z,9.30
2023-04-23T19:50:11.092Z,8.77
2023-04-23T19:52:23.180Z,9.05
2023-04-23T19:54:27.530Z,9.48
2023-04-23T19:56:30.931Z,9.43
2023-04-23T19:58:34.354Z,8.88
2023-04-23T20:00:41.393Z,9.50
2023-04-23T20:02:45.236Z,8.93
2023-04-23T20:04:48.729Z,9.18
2023-04-23T20:06:53.513Z,8.48
2023-04-23T20:09:07.885Z,8.63
2023-04-23T20:11:11.611Z,8.95
2023-04-23T20:13:15.287Z,9.27
2023-04-23T20:15:21.657Z,9.10
2023-04-23T20:17:26.709Z,8.80
2023-04-23T20:19:31.437Z,8.93
2023-04-23T20:21:35.061Z,8.88
2023-04-23T20:23:40.095Z,8.77
2023-04-23T20:25:43.608Z,8.43
2023-04-23T20:27:47.020Z,7.95
2023-04-23T20:29:50.492Z,8.65
2023-04-23T20:31:54.519Z,8.30
2023-04-23T20:33:58.529Z,8.43
2023-04-23T20:36:02.276Z,8.48
2023-04-23T20:38:06.028Z,8.32
2023-04-23T20:40:14.568Z,8.02
2023-04-23T20:42:18.337Z,7.40
2023-04-23T20:44:22.893Z,7.78
2023-04-23T20:46:30.271Z,7.70
2023-04-23T20:48:34.335Z,7.13
2023-04-23T20:50:38.078Z,7.40
2023-04-23T20:52:42.001Z,7.00
2023-04-23T20:54:46.883Z,6.82
2023-04-23T20:56:54.423Z,7.55
2023-04-23T20:58:58.887Z,7.60
2023-04-23T21:01:04.919Z,7.00
2023-04-23T21:03:09.000Z,6.82
2023-04-23T21:05:13.161Z,6.82
2023-04-23T21:07:16.862Z,6.90
2023-04-23T21:09:20.649Z,6.90
2023-04-23T21:11:26.376Z,7.20
2023-04-23T21:13:31.689Z,7.03
2023-04-23T21:15:35.928Z,6.63
2023-04-23T21:17:39.579Z,6.63
2023-04-23T21:19:43.449Z,6.38
2023-04-23T21:21:47.356Z,7.22
2023-04-23T21:23:51.041Z,6.53
2023-04-23T21:25:54.576Z,6.65
2023-04-23T21:27:58.450Z,5.90
2023-04-23T21:30:09.900Z,6.05
2023-04-23T21:34:16.926Z,6.07
2023-04-23T21:36:20.471Z,5.80
2023-04-23T21:38:24.065Z,5.30
2023-04-23T21:40:27.686Z,5.93
2023-04-23T21:42:31.779Z,5.65
2023-04-23T21:44:37.747Z,5.68
2023-04-23T21:46:43.474Z,5.70
2023-04-23T21:48:50.503Z,5.53
2023-04-23T21:50:55.401Z,5.43
2023-04-23T21:52:59.613Z,5.50
2023-04-23T21:55:04.571Z,5.75
2023-04-23T21:57:08.172Z,5.80
2023-04-23T21:59:11.672Z,5.78
2023-04-23T22:01:15.137Z,5.80
2023-04-23T22:03:28.652Z,5.32
2023-04-23T22:05:41.724Z,5.38
2023-04-23T22:07:45.175Z,5.97
2023-04-23T22:09:48.626Z,6.15
2023-04-23T22:12:01.531Z,5.55
2023-04-23T22:14:06.432Z,5.53
2023-04-23T22:16:24.484Z,5.50
2023-04-23T22:18:32.472Z,5.50
2023-04-23T22:20:37.636Z,5.68
2023-04-23T22:22:43.080Z,5.28
2023-04-23T22:24:46.566Z,5.45
2023-04-23T22:26:50.104Z,5.78
2023-04-23T22:28:53.472Z,5.45
2023-04-23T22:30:56.842Z,5.43
2023-04-23T22:33:00.254Z,6.22
2023-04-23T22:35:05.371Z,6.97
2023-04-23T22:37:08.905Z,6.20
2023-04-23T22:39:12.981Z,6.00
2023-04-23T22:41:16.562Z,6.22
2023-04-23T22:43:19.956Z,6.20
2023-04-23T22:45:23.353Z,6.18
2023-04-23T22:47:27.170Z,6.25
2023-04-23T22:49:30.791Z,6.60
2023-04-23T22:51:36.095Z,7.20
2023-04-23T22:53:39.502Z,6.35
2023-04-23T22:55:42.921Z,7.00
2023-04-23T22:57:46.308Z,7.30
2023-04-23T22:59:49.903Z,6.78
2023-04-23T23:01:53.319Z,7.10
2023-04-23T23:03:56.778Z,7.85
2023-04-23T23:06:00.267Z,7.15
2023-04-23T23:08:05.053Z,7.45
2023-04-23T23:10:09.639Z,7.72
2023-04-23T23:12:13.078Z,7.47
2023-04-23T23:14:16.971Z,7.22
2023-04-23T23:16:20.479Z,7.55
2023-04-23T23:18:23.946Z,7.22
2023-04-23T23:20:27.658Z,7.55
2023-04-23T23:22:31.168Z,7.03
2023-04-23T23:24:36.043Z,7.03
2023-04-23T23:26:39.393Z,7.47
2023-04-23T23:28:43.138Z,8.45
2023-04-23T23:30:46.641Z,8.15
2023-04-23T23:32:50.248Z,8.10
2023-04-23T23:34:53.658Z,8.07
2023-04-23T23:36:57.070Z,7.65
2023-04-23T23:39:21.225Z,7.90
2023-04-23T23:41:27.612Z,8.35
2023-04-23T23:43:31.032Z,7.95
2023-04-23T23:45:34.563Z,7.88
2023-04-23T23:47:38.174Z,8.43
2023-04-23T23:49:41.967Z,8.00
2023-04-23T23:51:45.690Z,7.78
2023-04-23T23:53:49.094Z,8.43
2023-04-23T23:55:52.567Z,7.95
2023-04-23T23:57:57.471Z,8.55
